sensor_id;sensor_type;location;lat;lon;timestamp;temperature;humidity
17452;DHT22;8843;48.838;9.324;2023-02-26T00:00:09;8.10;87.20
17452;DHT22;8843;48.838;9.324;2023-02-26T00:02:40;8.10;87.20
17452;DHT22;8843;48.838;9.324;2023-02-26T00:05:08;8.10;87.10
17452;DHT22;8843;48.838;9.324;2023-02-26T00:07:37;8.10;87.10
17452;DHT22;8843;48.838;9.324;2023-02-26T00:10:05;8.10;87.00
17452;DHT22;8843;48.838;9.324;2023-02-26T00:12:33;8.10;87.00
17452;DHT22;8843;48.838;9.324;2023-02-26T00:15:00;8.10;87.10
17452;DHT22;8843;48.838;9.324;2023-02-26T00:17:33;8.10;87.00
17452;DHT22;8843;48.838;9.324;2023-02-26T00:20:02;8.10;87.00
17452;DHT22;8843;48.838;9.324;2023-02-26T00:22:29;8.10;87.00
17452;DHT22;8843;48.838;9.324;2023-02-26T00:24:58;8.10;87.00
17452;DHT22;8843;48.838;9.324;2023-02-26T00:27:25;8.00;86.90
17452;DHT22;8843;48.838;9.324;2023-02-26T00:29:52;8.00;87.50
17452;DHT22;8843;48.838;9.324;2023-02-26T00:32:20;8.00;86.80
17452;DHT22;8843;48.838;9.324;2023-02-26T00:34:48;8.00;86.70
17452;DHT22;8843;48.838;9.324;2023-02-26T00:37:31;8.00;86.70
17452;DHT22;8843;48.838;9.324;2023-02-26T00:40:12;8.00;86.70
17452;DHT22;8843;48.838;9.324;2023-02-26T00:42:41;8.00;86.60
17452;DHT22;8843;48.838;9.324;2023-02-26T00:45:10;8.10;86.70
17452;DHT22;8843;48.838;9.324;2023-02-26T00:47:42;8.00;86.50
17452;DHT22;8843;48.838;9.324;2023-02-26T00:50:17;8.00;86.50
17452;DHT22;8843;48.838;9.324;2023-02-26T00:52:52;8.00;86.50
17452;DHT22;8843;48.838;9.324;2023-02-26T00:55:24;8.00;86.50
17452;DHT22;8843;48.838;9.324;2023-02-26T00:57:51;8.00;86.50
17452;DHT22;8843;48.838;9.324;2023-02-26T01:00:19;8.00;86.60
17452;DHT22;8843;48.838;9.324;2023-02-26T01:02:46;8.00;86.50
17452;DHT22;8843;48.838;9.324;2023-02-26T01:05:14;8.00;86.50
17452;DHT22;8843;48.838;9.324;2023-02-26T01:07:45;8.00;86.50
17452;DHT22;8843;48.838;9.324;2023-02-26T01:10:13;8.00;86.40
17452;DHT22;8843;48.838;9.324;2023-02-26T01:12:42;8.00;86.30
17452;DHT22;8843;48.838;9.324;2023-02-26T01:15:10;8.00;86.30
17452;DHT22;8843;48.838;9.324;2023-02-26T01:17:43;8.00;86.40
17452;DHT22;8843;48.838;9.324;2023-02-26T01:20:15;8.00;86.30
17452;DHT22;8843;48.838;9.324;2023-02-26T01:22:48;8.00;86.20
17452;DHT22;8843;48.838;9.324;2023-02-26T01:25:22;8.00;86.20
17452;DHT22;8843;48.838;9.324;2023-02-26T01:27:52;8.00;86.20
17452;DHT22;8843;48.838;9.324;2023-02-26T01:30:22;8.00;86.10
17452;DHT22;8843;48.838;9.324;2023-02-26T01:32:55;8.00;86.10
17452;DHT22;8843;48.838;9.324;2023-02-26T01:35:38;7.90;86.00
17452;DHT22;8843;48.838;9.324;2023-02-26T01:38:15;7.90;86.00
17452;DHT22;8843;48.838;9.324;2023-02-26T01:41:13;7.90;86.00
17452;DHT22;8843;48.838;9.324;2023-02-26T01:43:53;7.90;86.00
17452;DHT22;8843;48.838;9.324;2023-02-26T01:46:30;7.90;85.90
17452;DHT22;8843;48.838;9.324;2023-02-26T01:48:59;7.90;85.90
17452;DHT22;8843;48.838;9.324;2023-02-26T01:51:45;7.90;85.90
17452;DHT22;8843;48.838;9.324;2023-02-26T01:54:14;7.90;85.80
17452;DHT22;8843;48.838;9.324;2023-02-26T01:56:43;7.90;85.80
17452;DHT22;8843;48.838;9.324;2023-02-26T01:59:15;7.90;85.80
17452;DHT22;8843;48.838;9.324;2023-02-26T02:01:43;7.90;85.80
17452;DHT22;8843;48.838;9.324;2023-02-26T02:04:12;7.90;85.80
17452;DHT22;8843;48.838;9.324;2023-02-26T02:06:40;7.90;85.70
17452;DHT22;8843;48.838;9.324;2023-02-26T02:09:08;7.90;85.70
17452;DHT22;8843;48.838;9.324;2023-02-26T02:11:42;7.90;85.60
17452;DHT22;8843;48.838;9.324;2023-02-26T02:14:17;7.90;85.70
17452;DHT22;8843;48.838;9.324;2023-02-26T02:16:54;7.90;85.60
17452;DHT22;8843;48.838;9.324;2023-02-26T02:19:48;7.90;85.50
17452;DHT22;8843;48.838;9.324;2023-02-26T02:22:39;7.90;85.60
17452;DHT22;8843;48.838;9.324;2023-02-26T02:25:25;7.90;85.50
17452;DHT22;8843;48.838;9.324;2023-02-26T02:28:02;7.80;85.40
17452;DHT22;8843;48.838;9.324;2023-02-26T02:30:37;7.80;85.40
17452;DHT22;8843;48.838;9.324;2023-02-26T02:33:12;7.80;85.40
17452;DHT22;8843;48.838;9.324;2023-02-26T02:35:44;7.80;85.40
17452;DHT22;8843;48.838;9.324;2023-02-26T02:38:15;7.80;85.40
17452;DHT22;8843;48.838;9.324;2023-02-26T02:40:47;7.80;85.40
17452;DHT22;8843;48.838;9.324;2023-02-26T02:43:17;7.80;85.40
17452;DHT22;8843;48.838;9.324;2023-02-26T02:45:48;7.80;85.40
17452;DHT22;8843;48.838;9.324;2023-02-26T02:48:21;7.80;85.30
17452;DHT22;8843;48.838;9.324;2023-02-26T02:50:53;7.80;85.30
17452;DHT22;8843;48.838;9.324;2023-02-26T02:53:25;7.80;85.20
17452;DHT22;8843;48.838;9.324;2023-02-26T02:55:56;7.80;85.20
17452;DHT22;8843;48.838;9.324;2023-02-26T02:58:28;7.80;85.90
17452;DHT22;8843;48.838;9.324;2023-02-26T03:00:59;7.80;85.10
17452;DHT22;8843;48.838;9.324;2023-02-26T03:03:36;7.70;85.00
17452;DHT22;8843;48.838;9.324;2023-02-26T03:06:05;7.70;85.00
17452;DHT22;8843;48.838;9.324;2023-02-26T03:08:36;7.70;85.00
17452;DHT22;8843;48.838;9.324;2023-02-26T03:11:04;7.70;84.90
17452;DHT22;8843;48.838;9.324;2023-02-26T03:13:31;7.70;85.00
17452;DHT22;8843;48.838;9.324;2023-02-26T03:16:07;7.70;84.90
17452;DHT22;8843;48.838;9.324;2023-02-26T03:18:49;7.70;85.00
17452;DHT22;8843;48.838;9.324;2023-02-26T03:21:25;7.70;84.90
17452;DHT22;8843;48.838;9.324;2023-02-26T03:23:59;7.70;85.00
17452;DHT22;8843;48.838;9.324;2023-02-26T03:26:31;7.70;84.80
17452;DHT22;8843;48.838;9.324;2023-02-26T03:29:05;7.70;84.80
17452;DHT22;8843;48.838;9.324;2023-02-26T03:31:36;7.70;84.80
17452;DHT22;8843;48.838;9.324;2023-02-26T03:34:08;7.70;84.80
17452;DHT22;8843;48.838;9.324;2023-02-26T03:36:42;7.70;84.70
17452;DHT22;8843;48.838;9.324;2023-02-26T03:39:18;7.70;84.70
17452;DHT22;8843;48.838;9.324;2023-02-26T03:41:51;7.70;84.80
17452;DHT22;8843;48.838;9.324;2023-02-26T03:44:23;7.70;84.80
17452;DHT22;8843;48.838;9.324;2023-02-26T03:46:54;7.60;84.60
17452;DHT22;8843;48.838;9.324;2023-02-26T03:49:26;7.60;85.40
17452;DHT22;8843;48.838;9.324;2023-02-26T03:51:55;7.60;84.70
17452;DHT22;8843;48.838;9.324;2023-02-26T03:54:26;7.60;84.60
17452;DHT22;8843;48.838;9.324;2023-02-26T03:56:55;7.60;84.60
17452;DHT22;8843;48.838;9.324;2023-02-26T03:59:23;7.60;84.60
17452;DHT22;8843;48.838;9.324;2023-02-26T04:01:53;7.60;84.60
17452;DHT22;8843;48.838;9.324;2023-02-26T04:04:27;7.60;84.50
17452;DHT22;8843;48.838;9.324;2023-02-26T04:06:56;7.60;84.50
17452;DHT22;8843;48.838;9.324;2023-02-26T04:09:23;7.60;84.50
17452;DHT22;8843;48.838;9.324;2023-02-26T04:11:52;7.60;84.40
17452;DHT22;8843;48.838;9.324;2023-02-26T04:14:19;7.60;84.40
17452;DHT22;8843;48.838;9.324;2023-02-26T04:16:46;7.60;84.40
17452;DHT22;8843;48.838;9.324;2023-02-26T04:19:13;7.60;84.30
17452;DHT22;8843;48.838;9.324;2023-02-26T04:21:42;7.60;84.30
17452;DHT22;8843;48.838;9.324;2023-02-26T04:24:10;7.60;84.30
17452;DHT22;8843;48.838;9.324;2023-02-26T04:26:37;7.60;84.20
17452;DHT22;8843;48.838;9.324;2023-02-26T04:29:03;7.60;84.30
17452;DHT22;8843;48.838;9.324;2023-02-26T04:31:30;7.60;84.20
17452;DHT22;8843;48.838;9.324;2023-02-26T04:33:57;7.50;84.30
17452;DHT22;8843;48.838;9.324;2023-02-26T04:36:24;7.60;84.20
17452;DHT22;8843;48.838;9.324;2023-02-26T04:38:52;7.50;84.10
17452;DHT22;8843;48.838;9.324;2023-02-26T04:41:19;7.50;84.10
17452;DHT22;8843;48.838;9.324;2023-02-26T04:43:47;7.50;84.10
17452;DHT22;8843;48.838;9.324;2023-02-26T04:46:14;7.50;84.10
17452;DHT22;8843;48.838;9.324;2023-02-26T04:48:41;7.50;84.00
17452;DHT22;8843;48.838;9.324;2023-02-26T04:51:07;7.50;84.00
17452;DHT22;8843;48.838;9.324;2023-02-26T04:53:35;7.50;84.10
17452;DHT22;8843;48.838;9.324;2023-02-26T04:56:03;7.50;83.90
17452;DHT22;8843;48.838;9.324;2023-02-26T04:58:31;7.50;83.90
17452;DHT22;8843;48.838;9.324;2023-02-26T05:00:57;7.50;83.90
17452;DHT22;8843;48.838;9.324;2023-02-26T05:03:24;7.50;83.90
17452;DHT22;8843;48.838;9.324;2023-02-26T05:05:51;7.50;83.90
17452;DHT22;8843;48.838;9.324;2023-02-26T05:08:18;7.40;83.80
17452;DHT22;8843;48.838;9.324;2023-02-26T05:10:45;7.50;83.90
17452;DHT22;8843;48.838;9.324;2023-02-26T05:13:13;7.40;83.70
17452;DHT22;8843;48.838;9.324;2023-02-26T05:15:40;7.50;83.80
17452;DHT22;8843;48.838;9.324;2023-02-26T05:18:07;7.40;83.60
17452;DHT22;8843;48.838;9.324;2023-02-26T05:20:34;7.40;83.70
17452;DHT22;8843;48.838;9.324;2023-02-26T05:23:01;7.40;83.60
17452;DHT22;8843;48.838;9.324;2023-02-26T05:25:28;7.40;83.50
17452;DHT22;8843;48.838;9.324;2023-02-26T05:27:55;7.40;83.60
17452;DHT22;8843;48.838;9.324;2023-02-26T05:30:23;7.40;83.50
17452;DHT22;8843;48.838;9.324;2023-02-26T05:32:50;7.40;83.50
17452;DHT22;8843;48.838;9.324;2023-02-26T05:35:17;7.40;83.60
17452;DHT22;8843;48.838;9.324;2023-02-26T05:37:44;7.40;83.50
17452;DHT22;8843;48.838;9.324;2023-02-26T05:40:12;7.40;83.40
17452;DHT22;8843;48.838;9.324;2023-02-26T05:42:39;7.40;83.40
17452;DHT22;8843;48.838;9.324;2023-02-26T05:45:07;7.40;83.40
17452;DHT22;8843;48.838;9.324;2023-02-26T05:47:36;7.30;83.30
17452;DHT22;8843;48.838;9.324;2023-02-26T05:50:04;7.40;83.40
17452;DHT22;8843;48.838;9.324;2023-02-26T05:52:31;7.30;83.20
17452;DHT22;8843;48.838;9.324;2023-02-26T05:54:58;7.30;83.20
17452;DHT22;8843;48.838;9.324;2023-02-26T05:57:25;7.30;83.20
17452;DHT22;8843;48.838;9.324;2023-02-26T05:59:52;7.30;83.20
17452;DHT22;8843;48.838;9.324;2023-02-26T06:02:19;7.30;83.20
17452;DHT22;8843;48.838;9.324;2023-02-26T06:04:48;7.30;83.10
17452;DHT22;8843;48.838;9.324;2023-02-26T06:07:15;7.30;83.00
17452;DHT22;8843;48.838;9.324;2023-02-26T06:09:42;7.30;83.10
17452;DHT22;8843;48.838;9.324;2023-02-26T06:12:09;7.30;83.00
17452;DHT22;8843;48.838;9.324;2023-02-26T06:14:36;7.30;83.00
17452;DHT22;8843;48.838;9.324;2023-02-26T06:17:03;7.30;83.00
17452;DHT22;8843;48.838;9.324;2023-02-26T06:19:31;7.30;82.90
17452;DHT22;8843;48.838;9.324;2023-02-26T06:21:59;7.30;83.00
17452;DHT22;8843;48.838;9.324;2023-02-26T06:24:26;7.30;83.00
17452;DHT22;8843;48.838;9.324;2023-02-26T06:26:53;7.30;83.00
17452;DHT22;8843;48.838;9.324;2023-02-26T06:29:20;7.20;82.90
17452;DHT22;8843;48.838;9.324;2023-02-26T06:31:48;7.20;82.80
17452;DHT22;8843;48.838;9.324;2023-02-26T06:34:15;7.20;82.90
17452;DHT22;8843;48.838;9.324;2023-02-26T06:36:42;7.20;82.90
17452;DHT22;8843;48.838;9.324;2023-02-26T06:39:11;7.20;82.90
17452;DHT22;8843;48.838;9.324;2023-02-26T06:41:38;7.30;82.90
17452;DHT22;8843;48.838;9.324;2023-02-26T06:44:05;7.20;82.80
17452;DHT22;8843;48.838;9.324;2023-02-26T06:46:32;7.20;83.50
17452;DHT22;8843;48.838;9.324;2023-02-26T06:48:59;7.20;82.80
17452;DHT22;8843;48.838;9.324;2023-02-26T06:51:35;7.20;82.90
17452;DHT22;8843;48.838;9.324;2023-02-26T06:54:08;7.10;83.50
17452;DHT22;8843;48.838;9.324;2023-02-26T06:56:36;7.10;82.00
17452;DHT22;8843;48.838;9.324;2023-02-26T06:59:03;7.10;82.00
17452;DHT22;8843;48.838;9.324;2023-02-26T07:01:30;7.10;82.40
17452;DHT22;8843;48.838;9.324;2023-02-26T07:03:57;7.10;82.40
17452;DHT22;8843;48.838;9.324;2023-02-26T07:06:24;7.10;82.30
17452;DHT22;8843;48.838;9.324;2023-02-26T07:08:51;7.10;82.30
17452;DHT22;8843;48.838;9.324;2023-02-26T07:11:18;7.10;82.30
17452;DHT22;8843;48.838;9.324;2023-02-26T07:13:46;7.10;82.30
17452;DHT22;8843;48.838;9.324;2023-02-26T07:16:13;7.10;82.40
17452;DHT22;8843;48.838;9.324;2023-02-26T07:18:40;7.30;89.00
17452;DHT22;8843;48.838;9.324;2023-02-26T07:21:07;7.50;85.30
17452;DHT22;8843;48.838;9.324;2023-02-26T07:23:34;7.30;80.20
17452;DHT22;8843;48.838;9.324;2023-02-26T07:26:01;7.20;81.80
17452;DHT22;8843;48.838;9.324;2023-02-26T07:28:28;7.20;82.30
17452;DHT22;8843;48.838;9.324;2023-02-26T07:30:56;7.10;82.20
17452;DHT22;8843;48.838;9.324;2023-02-26T07:33:24;7.10;82.30
17452;DHT22;8843;48.838;9.324;2023-02-26T07:35:53;7.10;82.30
17452;DHT22;8843;48.838;9.324;2023-02-26T07:38:20;7.10;82.40
17452;DHT22;8843;48.838;9.324;2023-02-26T07:40:47;7.10;82.40
17452;DHT22;8843;48.838;9.324;2023-02-26T07:43:14;7.10;82.50
17452;DHT22;8843;48.838;9.324;2023-02-26T07:45:40;7.10;82.60
17452;DHT22;8843;48.838;9.324;2023-02-26T07:48:09;7.10;82.70
17452;DHT22;8843;48.838;9.324;2023-02-26T07:50:36;7.00;83.40
17452;DHT22;8843;48.838;9.324;2023-02-26T07:53:02;7.10;83.60
17452;DHT22;8843;48.838;9.324;2023-02-26T07:55:29;7.00;82.70
17452;DHT22;8843;48.838;9.324;2023-02-26T07:57:56;7.00;82.80
17452;DHT22;8843;48.838;9.324;2023-02-26T08:00:23;7.10;83.00
17452;DHT22;8843;48.838;9.324;2023-02-26T08:02:50;7.10;83.10
17452;DHT22;8843;48.838;9.324;2023-02-26T08:05:18;7.00;83.00
17452;DHT22;8843;48.838;9.324;2023-02-26T08:07:45;7.40;87.90
17452;DHT22;8843;48.838;9.324;2023-02-26T08:10:13;7.40;83.70
17452;DHT22;8843;48.838;9.324;2023-02-26T08:12:40;7.20;83.10
17452;DHT22;8843;48.838;9.324;2023-02-26T08:15:08;7.20;84.10
17452;DHT22;8843;48.838;9.324;2023-02-26T08:17:36;7.10;84.10
17452;DHT22;8843;48.838;9.324;2023-02-26T08:20:04;7.10;84.00
17452;DHT22;8843;48.838;9.324;2023-02-26T08:22:32;7.10;84.10
17452;DHT22;8843;48.838;9.324;2023-02-26T08:24:59;7.10;84.20
17452;DHT22;8843;48.838;9.324;2023-02-26T08:27:26;7.00;83.90
17452;DHT22;8843;48.838;9.324;2023-02-26T08:29:53;7.00;84.00
17452;DHT22;8843;48.838;9.324;2023-02-26T08:32:20;7.00;83.80
17452;DHT22;8843;48.838;9.324;2023-02-26T08:34:48;7.00;84.00
17452;DHT22;8843;48.838;9.324;2023-02-26T08:37:15;7.00;84.00
17452;DHT22;8843;48.838;9.324;2023-02-26T08:39:43;7.00;83.90
17452;DHT22;8843;48.838;9.324;2023-02-26T08:42:10;7.00;83.30
17452;DHT22;8843;48.838;9.324;2023-02-26T08:44:40;6.90;83.90
17452;DHT22;8843;48.838;9.324;2023-02-26T08:47:07;7.00;84.50
17452;DHT22;8843;48.838;9.324;2023-02-26T08:49:34;7.00;89.50
17452;DHT22;8843;48.838;9.324;2023-02-26T08:52:01;8.60;86.30
17452;DHT22;8843;48.838;9.324;2023-02-26T08:54:28;8.80;80.00
17452;DHT22;8843;48.838;9.324;2023-02-26T08:56:57;8.10;75.20
17452;DHT22;8843;48.838;9.324;2023-02-26T08:59:24;7.50;76.50
17452;DHT22;8843;48.838;9.324;2023-02-26T09:01:51;7.20;76.50
17452;DHT22;8843;48.838;9.324;2023-02-26T09:04:18;7.00;77.10
17452;DHT22;8843;48.838;9.324;2023-02-26T09:06:45;6.90;77.60
17452;DHT22;8843;48.838;9.324;2023-02-26T09:09:12;6.90;77.90
17452;DHT22;8843;48.838;9.324;2023-02-26T09:11:39;6.80;78.40
17452;DHT22;8843;48.838;9.324;2023-02-26T09:14:07;6.80;79.10
17452;DHT22;8843;48.838;9.324;2023-02-26T09:16:34;6.80;79.10
17452;DHT22;8843;48.838;9.324;2023-02-26T09:19:02;6.80;79.70
17452;DHT22;8843;48.838;9.324;2023-02-26T09:21:29;6.80;79.90
17452;DHT22;8843;48.838;9.324;2023-02-26T09:23:56;6.80;80.10
17452;DHT22;8843;48.838;9.324;2023-02-26T09:26:24;6.90;80.40
17452;DHT22;8843;48.838;9.324;2023-02-26T09:28:51;6.90;86.50
17452;DHT22;8843;48.838;9.324;2023-02-26T09:31:19;7.10;81.50
17452;DHT22;8843;48.838;9.324;2023-02-26T09:33:46;7.00;80.40
17452;DHT22;8843;48.838;9.324;2023-02-26T09:36:13;7.30;87.10
17452;DHT22;8843;48.838;9.324;2023-02-26T09:38:40;7.30;89.60
17452;DHT22;8843;48.838;9.324;2023-02-26T09:41:15;7.40;84.10
17452;DHT22;8843;48.838;9.324;2023-02-26T09:44:04;7.20;82.10
17452;DHT22;8843;48.838;9.324;2023-02-26T09:46:40;7.10;82.90
17452;DHT22;8843;48.838;9.324;2023-02-26T09:49:19;6.90;82.40
17452;DHT22;8843;48.838;9.324;2023-02-26T09:51:50;6.90;82.60
17452;DHT22;8843;48.838;9.324;2023-02-26T09:54:22;6.80;82.90
17452;DHT22;8843;48.838;9.324;2023-02-26T09:56:51;6.80;82.80
17452;DHT22;8843;48.838;9.324;2023-02-26T09:59:19;6.80;82.60
17452;DHT22;8843;48.838;9.324;2023-02-26T10:01:52;6.70;82.40
17452;DHT22;8843;48.838;9.324;2023-02-26T10:04:26;6.70;82.20
17452;DHT22;8843;48.838;9.324;2023-02-26T10:07:09;6.80;82.90
17452;DHT22;8843;48.838;9.324;2023-02-26T10:09:59;6.80;83.20
17452;DHT22;8843;48.838;9.324;2023-02-26T10:12:30;6.80;83.10
17452;DHT22;8843;48.838;9.324;2023-02-26T10:15:02;6.80;82.80
17452;DHT22;8843;48.838;9.324;2023-02-26T10:17:35;6.80;83.10
17452;DHT22;8843;48.838;9.324;2023-02-26T10:20:13;6.60;78.50
17452;DHT22;8843;48.838;9.324;2023-02-26T10:22:44;6.10;73.70
17452;DHT22;8843;48.838;9.324;2023-02-26T10:25:16;5.60;73.70
17452;DHT22;8843;48.838;9.324;2023-02-26T10:27:54;5.50;73.90
17452;DHT22;8843;48.838;9.324;2023-02-26T10:30:29;5.40;74.30
17452;DHT22;8843;48.838;9.324;2023-02-26T10:33:06;5.40;74.70
17452;DHT22;8843;48.838;9.324;2023-02-26T11:51:04;7.00;77.80
17452;DHT22;8843;48.838;9.324;2023-02-26T11:53:34;8.60;80.60
17452;DHT22;8843;48.838;9.324;2023-02-26T11:56:07;7.80;76.40
17452;DHT22;8843;48.838;9.324;2023-02-26T11:58:37;7.30;77.30
17452;DHT22;8843;48.838;9.324;2023-02-26T12:01:07;7.10;77.40
17452;DHT22;8843;48.838;9.324;2023-02-26T12:03:36;7.00;78.50
17452;DHT22;8843;48.838;9.324;2023-02-26T12:06:06;6.90;78.20
17452;DHT22;8843;48.838;9.324;2023-02-26T12:08:38;6.90;80.10
17452;DHT22;8843;48.838;9.324;2023-02-26T12:14:03;6.90;80.30
17452;DHT22;8843;48.838;9.324;2023-02-26T12:16:38;6.90;79.90
17452;DHT22;8843;48.838;9.324;2023-02-26T12:19:13;6.80;80.70
17452;DHT22;8843;48.838;9.324;2023-02-26T12:22:00;6.80;81.30
17452;DHT22;8843;48.838;9.324;2023-02-26T12:24:54;6.80;80.10
17452;DHT22;8843;48.838;9.324;2023-02-26T12:27:32;6.80;81.00
17452;DHT22;8843;48.838;9.324;2023-02-26T12:30:30;6.80;81.20
17452;DHT22;8843;48.838;9.324;2023-02-26T12:33:09;6.80;81.50
17452;DHT22;8843;48.838;9.324;2023-02-26T12:35:50;6.80;81.40
17452;DHT22;8843;48.838;9.324;2023-02-26T12:38:29;6.70;79.90
17452;DHT22;8843;48.838;9.324;2023-02-26T12:41:19;6.70;80.60
17452;DHT22;8843;48.838;9.324;2023-02-26T12:43:50;6.80;81.50
17452;DHT22;8843;48.838;9.324;2023-02-26T12:46:35;6.80;80.90
17452;DHT22;8843;48.838;9.324;2023-02-26T12:49:28;6.80;81.80
17452;DHT22;8843;48.838;9.324;2023-02-26T12:52:17;6.70;78.40
17452;DHT22;8843;48.838;9.324;2023-02-26T12:54:59;6.70;80.90
17452;DHT22;8843;48.838;9.324;2023-02-26T12:57:53;6.70;81.00
17452;DHT22;8843;48.838;9.324;2023-02-26T13:04:08;6.70;79.90
17452;DHT22;8843;48.838;9.324;2023-02-26T13:06:54;6.70;80.40
17452;DHT22;8843;48.838;9.324;2023-02-26T13:09:31;6.60;75.00
17452;DHT22;8843;48.838;9.324;2023-02-26T13:12:14;7.30;82.50
17452;DHT22;8843;48.838;9.324;2023-02-26T13:14:49;7.10;81.80
17452;DHT22;8843;48.838;9.324;2023-02-26T13:17:23;6.90;80.60
17452;DHT22;8843;48.838;9.324;2023-02-26T13:19:55;6.90;82.50
17452;DHT22;8843;48.838;9.324;2023-02-26T13:22:25;6.80;83.10
17452;DHT22;8843;48.838;9.324;2023-02-26T13:24:57;6.70;79.60
17452;DHT22;8843;48.838;9.324;2023-02-26T13:27:29;6.60;81.40
17452;DHT22;8843;48.838;9.324;2023-02-26T13:30:05;6.70;82.50
17452;DHT22;8843;48.838;9.324;2023-02-26T13:32:33;6.70;81.20
17452;DHT22;8843;48.838;9.324;2023-02-26T13:35:05;6.70;78.90
17452;DHT22;8843;48.838;9.324;2023-02-26T13:37:37;6.60;80.80
17452;DHT22;8843;48.838;9.324;2023-02-26T13:43:03;6.50;72.70
17452;DHT22;8843;48.838;9.324;2023-02-26T13:45:40;6.80;80.70
17452;DHT22;8843;48.838;9.324;2023-02-26T13:48:15;6.70;77.40
17452;DHT22;8843;48.838;9.324;2023-02-26T13:50:54;6.70;77.80
17452;DHT22;8843;48.838;9.324;2023-02-26T13:53:47;6.60;76.90
17452;DHT22;8843;48.838;9.324;2023-02-26T13:56:16;6.60;78.70
17452;DHT22;8843;48.838;9.324;2023-02-26T13:58:48;6.60;78.00
17452;DHT22;8843;48.838;9.324;2023-02-26T14:01:17;6.60;77.90
17452;DHT22;8843;48.838;9.324;2023-02-26T14:03:47;6.60;78.40
17452;DHT22;8843;48.838;9.324;2023-02-26T14:06:33;6.70;78.50
17452;DHT22;8843;48.838;9.324;2023-02-26T14:09:04;6.60;78.60
17452;DHT22;8843;48.838;9.324;2023-02-26T14:11:46;6.60;78.50
17452;DHT22;8843;48.838;9.324;2023-02-26T14:14:30;6.70;79.90
17452;DHT22;8843;48.838;9.324;2023-02-26T14:17:19;6.70;78.50
17452;DHT22;8843;48.838;9.324;2023-02-26T14:20:16;6.70;79.70
17452;DHT22;8843;48.838;9.324;2023-02-26T14:22:48;6.70;77.50
17452;DHT22;8843;48.838;9.324;2023-02-26T14:25:20;6.70;78.90
17452;DHT22;8843;48.838;9.324;2023-02-26T14:28:34;6.70;79.30
17452;DHT22;8843;48.838;9.324;2023-02-26T14:31:12;6.70;78.80
17452;DHT22;8843;48.838;9.324;2023-02-26T14:33:43;6.70;77.40
17452;DHT22;8843;48.838;9.324;2023-02-26T14:36:16;6.70;77.90
17452;DHT22;8843;48.838;9.324;2023-02-26T14:38:44;6.70;80.50
17452;DHT22;8843;48.838;9.324;2023-02-26T14:41:23;6.70;79.30
17452;DHT22;8843;48.838;9.324;2023-02-26T14:43:58;6.70;78.70
17452;DHT22;8843;48.838;9.324;2023-02-26T14:46:26;6.70;80.10
17452;DHT22;8843;48.838;9.324;2023-02-26T14:48:54;6.70;79.70
17452;DHT22;8843;48.838;9.324;2023-02-26T14:51:27;6.70;78.60
17452;DHT22;8843;48.838;9.324;2023-02-26T14:54:11;6.70;78.10
17452;DHT22;8843;48.838;9.324;2023-02-26T14:56:53;6.70;78.80
17452;DHT22;8843;48.838;9.324;2023-02-26T14:59:39;6.70;79.40
17452;DHT22;8843;48.838;9.324;2023-02-26T15:02:23;6.70;80.10
17452;DHT22;8843;48.838;9.324;2023-02-26T15:05:13;6.60;77.60
17452;DHT22;8843;48.838;9.324;2023-02-26T15:08:05;6.70;79.20
17452;DHT22;8843;48.838;9.324;2023-02-26T15:10:55;6.60;76.50
17452;DHT22;8843;48.838;9.324;2023-02-26T15:13:42;6.70;79.70
17452;DHT22;8843;48.838;9.324;2023-02-26T15:16:25;6.70;78.30
17452;DHT22;8843;48.838;9.324;2023-02-26T15:19:13;6.70;78.10
17452;DHT22;8843;48.838;9.324;2023-02-26T15:21:52;6.70;79.60
17452;DHT22;8843;48.838;9.324;2023-02-26T15:24:25;6.70;79.10
17452;DHT22;8843;48.838;9.324;2023-02-26T15:26:58;6.70;79.00
17452;DHT22;8843;48.838;9.324;2023-02-26T15:29:28;6.70;79.20
17452;DHT22;8843;48.838;9.324;2023-02-26T15:31:58;6.70;79.00
17452;DHT22;8843;48.838;9.324;2023-02-26T15:34:28;6.70;77.60
17452;DHT22;8843;48.838;9.324;2023-02-26T15:36:57;6.70;79.20
17452;DHT22;8843;48.838;9.324;2023-02-26T15:39:25;6.60;76.20
17452;DHT22;8843;48.838;9.324;2023-02-26T15:41:53;6.70;78.30
17452;DHT22;8843;48.838;9.324;2023-02-26T15:44:23;6.70;79.20
17452;DHT22;8843;48.838;9.324;2023-02-26T15:46:54;6.70;77.20
17452;DHT22;8843;48.838;9.324;2023-02-26T15:49:26;6.70;76.40
17452;DHT22;8843;48.838;9.324;2023-02-26T15:51:55;6.70;78.80
17452;DHT22;8843;48.838;9.324;2023-02-26T15:54:26;6.70;78.70
17452;DHT22;8843;48.838;9.324;2023-02-26T15:56:55;6.70;78.10
17452;DHT22;8843;48.838;9.324;2023-02-26T15:59:25;6.70;77.30
17452;DHT22;8843;48.838;9.324;2023-02-26T16:01:53;6.60;76.00
17452;DHT22;8843;48.838;9.324;2023-02-26T16:04:21;6.70;78.80
17452;DHT22;8843;48.838;9.324;2023-02-26T16:06:55;6.70;75.80
17452;DHT22;8843;48.838;9.324;2023-02-26T16:09:26;6.70;76.10
17452;DHT22;8843;48.838;9.324;2023-02-26T16:12:00;6.70;77.40
17452;DHT22;8843;48.838;9.324;2023-02-26T16:14:31;6.60;78.00
17452;DHT22;8843;48.838;9.324;2023-02-26T16:17:00;6.60;75.30
17452;DHT22;8843;48.838;9.324;2023-02-26T16:19:32;6.70;77.60
17452;DHT22;8843;48.838;9.324;2023-02-26T16:22:05;6.70;76.90
17452;DHT22;8843;48.838;9.324;2023-02-26T16:24:33;6.70;78.10
17452;DHT22;8843;48.838;9.324;2023-02-26T16:27:03;6.60;76.40
17452;DHT22;8843;48.838;9.324;2023-02-26T16:29:34;6.70;77.00
17452;DHT22;8843;48.838;9.324;2023-02-26T16:32:03;6.70;77.90
17452;DHT22;8843;48.838;9.324;2023-02-26T16:34:34;6.60;76.00
17452;DHT22;8843;48.838;9.324;2023-02-26T16:37:26;6.60;76.10
17452;DHT22;8843;48.838;9.324;2023-02-26T16:40:15;6.60;72.50
17452;DHT22;8843;48.838;9.324;2023-02-26T16:42:50;6.70;90.40
17452;DHT22;8843;48.838;9.324;2023-02-26T16:45:24;7.70;83.40
17452;DHT22;8843;48.838;9.324;2023-02-26T16:47:56;7.20;77.80
17452;DHT22;8843;48.838;9.324;2023-02-26T16:50:25;7.10;76.70
17452;DHT22;8843;48.838;9.324;2023-02-26T16:52:59;6.90;75.90
17452;DHT22;8843;48.838;9.324;2023-02-26T16:55:29;6.80;77.60
17452;DHT22;8843;48.838;9.324;2023-02-26T16:57:58;6.70;77.50
17452;DHT22;8843;48.838;9.324;2023-02-26T17:00:27;6.80;78.40
17452;DHT22;8843;48.838;9.324;2023-02-26T17:03:00;6.70;76.30
17452;DHT22;8843;48.838;9.324;2023-02-26T17:05:33;6.70;77.90
17452;DHT22;8843;48.838;9.324;2023-02-26T17:08:08;6.60;77.10
17452;DHT22;8843;48.838;9.324;2023-02-26T17:10:44;6.70;78.40
17452;DHT22;8843;48.838;9.324;2023-02-26T17:13:16;6.70;78.30
17452;DHT22;8843;48.838;9.324;2023-02-26T17:15:44;6.70;76.50
17452;DHT22;8843;48.838;9.324;2023-02-26T17:18:12;6.70;76.60
17452;DHT22;8843;48.838;9.324;2023-02-26T17:20:39;6.70;77.60
17452;DHT22;8843;48.838;9.324;2023-02-26T17:23:08;6.60;74.40
17452;DHT22;8843;48.838;9.324;2023-02-26T17:25:37;6.50;76.60
17452;DHT22;8843;48.838;9.324;2023-02-26T17:28:05;6.50;76.90
17452;DHT22;8843;48.838;9.324;2023-02-26T17:30:33;6.60;77.00
17452;DHT22;8843;48.838;9.324;2023-02-26T17:33:00;6.60;77.10
17452;DHT22;8843;48.838;9.324;2023-02-26T17:35:28;6.60;77.30
17452;DHT22;8843;48.838;9.324;2023-02-26T17:37:56;6.60;74.70
17452;DHT22;8843;48.838;9.324;2023-02-26T17:40:28;6.60;77.80
17452;DHT22;8843;48.838;9.324;2023-02-26T17:42:56;6.60;77.20
17452;DHT22;8843;48.838;9.324;2023-02-26T17:45:25;6.60;78.30
17452;DHT22;8843;48.838;9.324;2023-02-26T17:47:51;6.60;76.90
17452;DHT22;8843;48.838;9.324;2023-02-26T17:50:33;6.70;76.70
17452;DHT22;8843;48.838;9.324;2023-02-26T17:53:01;6.60;78.30
17452;DHT22;8843;48.838;9.324;2023-02-26T17:55:29;6.60;77.50